Sunset, Louisiana
Current Conditions -  °F | °C
As of 6:15 PM on Thursday 18 Dec 2014 (Local Time) from KOPL Reporting Station
Overcast Overcast  
Wind Chill: 53°   Ceiling: 400
Heat Index: 53°   Visibility: 10mi
Dew Point: 51°   Wind: 6mph
Humidity: 94%   Direction: 30°NNE
Pressure: 30.1"   Gusts: NA
Location:  30.41°N, 92.07°W
Report Text: KOPL 190015Z AUTO 03005KT 10SM OVC004 12/11 A3010 RMK AO2 T01170108
Loading
Personal Weather Stations






























Interactive Weather Map New forecast layout! Learn more

10-Day Weather Forecast

Advertisements
Track Severe Weather on mobile